createdAt,value
2023-03-24T00:01:09.408Z,99351.06
2023-03-24T00:03:11.649Z,99351.91
2023-03-24T00:05:22.111Z,99348.47
2023-03-24T00:07:25.321Z,99362.19
2023-03-24T00:09:30.205Z,99363.91
2023-03-24T00:11:34.810Z,99369.09
2023-03-24T00:13:38.556Z,99372.47
2023-03-24T00:15:40.675Z,99364.78
2023-03-24T00:17:42.848Z,99370.75
2023-03-24T00:19:46.044Z,99368.22
2023-03-24T00:21:48.229Z,99370.75
2023-03-24T00:23:51.333Z,99373.34
2023-03-24T00:25:59.636Z,99383.66
2023-03-24T00:28:01.878Z,99378.53
2023-03-24T00:30:07.881Z,99393.97
2023-03-24T00:32:10.098Z,99393.16
2023-03-24T00:34:13.625Z,99402.56
2023-03-24T00:36:17.219Z,99390.53
2023-03-24T00:38:19.772Z,99395.69
2023-03-24T00:40:22.995Z,99391.38
2023-03-24T00:42:25.391Z,99396.50
2023-03-24T00:44:27.941Z,99398.22
2023-03-24T00:46:30.195Z,99405.13
2023-03-24T00:48:32.657Z,99400.81
2023-03-24T00:50:35.108Z,99402.53
2023-03-24T00:52:38.065Z,99409.41
2023-03-24T00:54:41.027Z,99413.69
2023-03-24T00:56:43.890Z,99412.00
2023-03-24T00:58:46.084Z,99411.16
2023-03-24T01:00:50.170Z,99411.16
2023-03-24T01:02:55.029Z,99401.72
2023-03-24T01:04:59.511Z,99418.88
2023-03-24T01:07:01.644Z,99404.31
2023-03-24T01:09:05.758Z,99414.59
2023-03-24T01:11:07.991Z,99410.31
2023-03-24T01:13:10.541Z,99411.16
2023-03-24T01:15:16.423Z,99408.59
2023-03-24T01:17:19.585Z,99416.31
2023-03-24T01:19:21.717Z,99419.75
2023-03-24T01:21:25.650Z,99416.34
2023-03-24T01:23:28.052Z,99412.03
2023-03-24T01:25:30.715Z,99421.47
2023-03-24T01:27:32.946Z,99425.72
2023-03-24T01:29:35.245Z,99429.19
2023-03-24T01:31:38.221Z,99423.19
2023-03-24T01:33:40.785Z,99424.91
2023-03-24T01:35:43.043Z,99429.19
2023-03-24T01:37:45.147Z,99456.63
2023-03-24T01:39:47.187Z,99431.75
2023-03-24T01:41:49.209Z,99449.78
2023-03-24T01:43:51.327Z,99441.19
2023-03-24T01:46:00.783Z,99445.50
2023-03-24T01:48:04.003Z,99436.03
2023-03-24T01:50:06.849Z,99444.63
2023-03-24T01:52:16.634Z,99452.31
2023-03-24T01:54:25.424Z,99432.63
2023-03-24T01:56:31.877Z,99442.88
2023-03-24T01:58:37.421Z,99447.19
2023-03-24T02:00:39.897Z,99456.59
2023-03-24T02:02:45.917Z,99443.72
2023-03-24T02:04:54.326Z,99454.00
2023-03-24T02:06:59.564Z,99454.88
2023-03-24T02:09:01.741Z,99461.75
2023-03-24T02:11:04.252Z,99456.59
2023-03-24T02:13:07.772Z,99471.16
2023-03-24T02:15:11.200Z,99460.03
2023-03-24T02:17:21.954Z,99484.09
2023-03-24T02:19:27.533Z,99477.16
2023-03-24T02:21:36.150Z,99472.84
2023-03-24T02:23:44.536Z,99472.88
2023-03-24T02:25:50.042Z,99486.56
2023-03-24T02:28:04.562Z,99481.47
2023-03-24T02:30:10.273Z,99497.72
2023-03-24T02:32:24.612Z,99490.84
2023-03-24T02:34:30.166Z,99496.00
2023-03-24T02:36:38.422Z,99492.63
2023-03-24T02:38:45.850Z,99495.16
2023-03-24T02:40:54.104Z,99497.75
2023-03-24T02:43:04.697Z,99518.28
2023-03-24T02:45:11.813Z,99498.56
2023-03-24T02:47:20.014Z,99499.44
2023-03-24T02:49:30.996Z,99500.28
2023-03-24T02:51:36.437Z,99498.56
2023-03-24T02:53:44.449Z,99501.16
2023-03-24T02:55:56.743Z,99508.84
2023-03-24T02:58:05.250Z,99511.41
2023-03-24T03:00:15.645Z,99504.56
2023-03-24T03:02:23.890Z,99508.00
2023-03-24T03:04:33.338Z,99502.84
2023-03-24T03:06:40.694Z,99511.44
2023-03-24T03:08:44.278Z,99511.44
2023-03-24T03:10:49.012Z,99524.25
2023-03-24T03:12:56.410Z,99520.88
2023-03-24T03:15:06.396Z,99520.84
2023-03-24T03:17:16.518Z,99508.84
2023-03-24T03:19:24.450Z,99516.56
2023-03-24T03:21:31.571Z,99516.56
2023-03-24T03:23:38.521Z,99516.56
2023-03-24T03:25:50.589Z,99521.69
2023-03-24T03:27:56.834Z,99521.72
2023-03-24T03:30:05.071Z,99520.00
2023-03-24T03:32:11.333Z,99518.28
2023-03-24T03:34:25.209Z,99519.97
2023-03-24T03:36:33.112Z,99526.81
2023-03-24T03:38:42.119Z,99519.97
2023-03-24T03:40:50.426Z,99526.84
2023-03-24T03:42:52.659Z,99524.28
2023-03-24T03:44:54.853Z,99520.84
2023-03-24T03:46:56.975Z,99519.13
2023-03-24T03:48:59.179Z,99519.16
2023-03-24T03:51:12.933Z,99517.44
2023-03-24T03:53:19.941Z,99524.25
2023-03-24T03:55:22.597Z,99525.09
2023-03-24T03:57:25.660Z,99531.97
2023-03-24T03:59:30.496Z,99531.97
2023-03-24T04:01:37.602Z,99528.53
2023-03-24T04:03:49.752Z,99535.41
2023-03-24T04:06:02.061Z,99531.16
2023-03-24T04:08:08.445Z,99537.06
2023-03-24T04:10:19.003Z,99532.84
2023-03-24T04:12:25.422Z,99536.28
2023-03-24T04:14:38.695Z,99535.41
2023-03-24T04:16:46.896Z,99537.13
2023-03-24T04:18:53.379Z,99536.22
2023-03-24T04:21:06.468Z,99540.50
2023-03-24T04:23:14.770Z,99543.84
2023-03-24T04:25:23.984Z,99539.66
2023-03-24T04:27:29.564Z,99547.34
2023-03-24T04:29:42.517Z,99554.22
2023-03-24T04:31:53.574Z,99558.47
2023-03-24T04:34:03.595Z,99551.63
2023-03-24T04:36:19.094Z,99545.66
2023-03-24T04:38:27.916Z,99551.63
2023-03-24T04:40:33.404Z,99554.16
2023-03-24T04:42:39.824Z,99561.88
2023-03-24T04:44:42.766Z,99560.16
2023-03-24T04:46:44.896Z,99559.31
2023-03-24T04:48:48.770Z,99563.59
2023-03-24T04:50:57.589Z,99560.16
2023-03-24T04:53:00.840Z,99562.69
2023-03-24T04:55:12.140Z,99563.56
2023-03-24T04:57:14.241Z,99577.28
2023-03-24T04:59:17.713Z,99572.13
2023-03-24T05:01:21.715Z,99578.13
2023-03-24T05:03:23.658Z,99577.25
2023-03-24T05:05:25.793Z,99575.59
2023-03-24T05:07:27.736Z,99582.34
2023-03-24T05:09:31.749Z,99585.72
2023-03-24T05:11:33.775Z,99573.72
2023-03-24T05:13:35.741Z,99582.22
2023-03-24T05:15:37.881Z,99582.22
2023-03-24T05:17:39.931Z,99583.13
2023-03-24T05:19:41.945Z,99601.06
2023-03-24T05:21:44.069Z,99601.06
2023-03-24T05:23:46.491Z,99590.84
2023-03-24T05:25:48.655Z,99602.78
2023-03-24T05:27:51.088Z,99597.75
2023-03-24T05:29:53.262Z,99610.53
2023-03-24T05:31:55.561Z,99600.25
2023-03-24T05:33:58.098Z,99607.97
2023-03-24T05:36:00.375Z,99598.59
2023-03-24T05:38:02.366Z,99602.91
2023-03-24T05:40:04.895Z,99606.31
2023-03-24T05:42:06.860Z,99613.91
2023-03-24T05:44:08.830Z,99613.09
2023-03-24T05:46:10.871Z,99621.66
2023-03-24T05:48:13.034Z,99618.19
2023-03-24T05:50:15.108Z,99617.38
2023-03-24T05:52:17.191Z,99619.94
2023-03-24T05:54:19.283Z,99624.22
2023-03-24T05:56:21.332Z,99619.09
2023-03-24T05:58:24.300Z,99631.06
2023-03-24T06:00:26.718Z,99626.75
2023-03-24T06:02:28.711Z,99623.25
2023-03-24T06:04:30.922Z,99635.16
2023-03-24T06:06:33.256Z,99633.56
2023-03-24T06:08:36.225Z,99629.31
2023-03-24T06:10:38.313Z,99637.00
2023-03-24T06:12:41.710Z,99633.66
2023-03-24T06:14:44.134Z,99635.31
2023-03-24T06:16:46.212Z,99635.28
2023-03-24T06:18:52.620Z,99636.13
2023-03-24T06:21:00.787Z,99636.94
2023-03-24T06:23:02.965Z,99642.09
2023-03-24T06:25:05.813Z,99640.34
2023-03-24T06:27:08.966Z,99645.50
2023-03-24T06:29:12.755Z,99648.13
2023-03-24T06:31:20.260Z,99648.94
2023-03-24T06:33:25.944Z,99651.50
2023-03-24T06:35:28.324Z,99641.19
2023-03-24T06:37:30.689Z,99643.72
2023-03-24T06:39:33.202Z,99647.16
2023-03-24T06:41:35.284Z,99652.34
2023-03-24T06:43:37.460Z,99641.13
2023-03-24T06:45:40.428Z,99648.06
2023-03-24T06:47:42.502Z,99636.94
2023-03-24T06:49:44.937Z,99643.69
2023-03-24T06:51:47.011Z,99642.84
2023-03-24T06:53:49.052Z,99645.47
2023-03-24T06:55:51.584Z,99646.34
2023-03-24T06:57:53.752Z,99648.88
2023-03-24T06:59:56.600Z,99653.13
2023-03-24T07:01:58.643Z,99646.34
2023-03-24T07:04:01.464Z,99645.56
2023-03-24T07:06:03.813Z,99654.97
2023-03-24T07:08:27.719Z,99647.28
2023-03-24T07:10:28.225Z,99662.69
2023-03-24T07:12:31.283Z,99657.56
2023-03-24T07:14:33.378Z,99661.03
2023-03-24T07:16:35.466Z,99663.63
2023-03-24T07:18:37.635Z,99669.53
2023-03-24T07:20:40.952Z,99673.09
2023-03-24T07:22:42.973Z,99673.13
2023-03-24T07:24:45.035Z,99680.03
2023-03-24T07:26:47.614Z,99679.22
2023-03-24T07:28:50.339Z,99680.13
2023-03-24T07:30:54.922Z,99682.66
2023-03-24T07:32:57.584Z,99681.88
2023-03-24T07:34:59.666Z,99687.06
2023-03-24T07:37:02.202Z,99681.94
2023-03-24T07:39:05.416Z,99686.22
2023-03-24T07:41:07.506Z,99688.00
2023-03-24T07:43:09.757Z,99691.47
2023-03-24T07:45:13.346Z,99682.91
2023-03-24T07:47:15.751Z,99689.69
2023-03-24T07:49:19.795Z,99689.75
2023-03-24T07:51:22.613Z,99687.22
2023-03-24T07:53:25.038Z,99683.78
2023-03-24T07:55:27.550Z,99682.16
2023-03-24T07:57:30.551Z,99686.38
2023-03-24T07:59:34.407Z,99682.91
2023-03-24T08:01:37.492Z,99693.19
2023-03-24T08:03:41.069Z,99691.41
2023-03-24T08:05:44.463Z,99695.78
2023-03-24T08:07:52.065Z,99686.31
2023-03-24T08:09:54.175Z,99682.81
2023-03-24T08:11:57.863Z,99686.31
2023-03-24T08:14:01.458Z,99679.47
2023-03-24T08:16:04.986Z,99694.94
2023-03-24T08:18:07.338Z,99698.38
2023-03-24T08:20:15.412Z,99718.09
2023-03-24T08:22:18.108Z,99695.84
2023-03-24T08:24:20.389Z,99702.72
2023-03-24T08:26:22.946Z,99687.31
2023-03-24T08:28:25.234Z,99688.16
2023-03-24T08:30:28.628Z,99702.69
2023-03-24T08:32:30.956Z,99690.72
2023-03-24T08:34:33.329Z,99692.47
2023-03-24T08:36:35.780Z,99707.84
2023-03-24T08:38:39.163Z,99695.88
2023-03-24T08:40:43.202Z,99708.78
2023-03-24T08:42:49.835Z,99702.78
2023-03-24T08:44:52.712Z,99690.84
2023-03-24T08:46:54.957Z,99698.56
2023-03-24T08:48:58.072Z,99702.84
2023-03-24T08:51:00.679Z,99715.69
2023-03-24T08:53:04.111Z,99688.28
2023-03-24T08:55:08.059Z,99713.16
2023-03-24T08:57:10.211Z,99708.81
2023-03-24T08:59:12.589Z,99701.13
2023-03-24T09:01:15.573Z,99709.72
2023-03-24T09:03:22.832Z,99715.75
2023-03-24T09:05:40.951Z,99706.31
2023-03-24T09:07:46.795Z,99714.91
2023-03-24T09:09:49.206Z,99713.22
2023-03-24T09:11:51.423Z,99726.09
2023-03-24T09:13:54.020Z,99731.25
2023-03-24T09:16:01.042Z,99745.81
2023-03-24T09:18:03.479Z,99720.09
2023-03-24T09:20:11.991Z,99721.78
2023-03-24T09:22:14.304Z,99735.53
2023-03-24T09:24:16.986Z,99728.69
2023-03-24T09:26:19.422Z,99735.56
2023-03-24T09:28:22.432Z,99720.13
2023-03-24T09:30:24.726Z,99734.72
2023-03-24T09:32:27.318Z,99732.16
2023-03-24T09:34:29.516Z,99718.41
2023-03-24T09:36:31.522Z,99715.81
2023-03-24T09:38:35.284Z,99720.97
2023-03-24T09:40:40.212Z,99716.69
2023-03-24T09:42:44.238Z,99720.97
2023-03-24T09:44:55.524Z,99720.97
2023-03-24T09:49:06.166Z,99706.34
2023-03-24T09:53:25.795Z,99714.09
2023-03-24T09:55:29.840Z,99697.78
2023-03-24T09:57:37.864Z,99694.34
2023-03-24T10:01:43.857Z,99709.81
2023-03-24T10:03:50.157Z,99709.78
2023-03-24T10:05:58.205Z,99714.97
2023-03-24T10:08:07.102Z,99711.50
2023-03-24T10:10:14.961Z,99740.72
2023-03-24T10:12:19.449Z,99701.19
2023-03-24T10:14:25.975Z,99712.34
2023-03-24T10:16:35.795Z,99708.00
2023-03-24T10:18:45.335Z,99719.13
2023-03-24T10:20:54.938Z,99704.47
2023-03-24T10:23:01.754Z,99700.16
2023-03-24T10:25:14.158Z,99734.56
2023-03-24T10:27:23.736Z,99701.03
2023-03-24T10:31:35.182Z,99682.75
2023-03-24T10:33:40.418Z,99677.63
2023-03-24T10:35:51.982Z,99692.22
2023-03-24T10:37:58.680Z,99677.53
2023-03-24T10:40:01.718Z,99696.31
2023-03-24T10:42:07.012Z,99675.56
2023-03-24T10:44:13.633Z,99674.47
2023-03-24T10:46:20.492Z,99687.69
2023-03-24T10:48:28.727Z,99687.63
2023-03-24T10:50:36.345Z,99711.69
2023-03-24T10:52:41.312Z,99719.66
2023-03-24T10:54:55.059Z,99729.97
2023-03-24T10:56:59.400Z,99719.66
2023-03-24T11:03:30.156Z,99712.19
2023-03-24T11:05:36.016Z,99705.31
2023-03-24T11:07:42.705Z,99703.53
2023-03-24T11:09:46.936Z,99691.56
2023-03-24T11:11:50.968Z,99696.66
2023-03-24T11:13:58.113Z,99676.88
2023-03-24T11:16:06.495Z,99685.44
2023-03-24T11:18:12.016Z,99680.31
2023-03-24T11:20:20.074Z,99685.44
2023-03-24T11:22:22.969Z,99677.63
2023-03-24T11:26:33.718Z,99680.22
2023-03-24T11:28:41.194Z,99681.88
2023-03-24T11:30:50.093Z,99684.53
2023-03-24T11:32:55.645Z,99675.88
2023-03-24T11:35:05.256Z,99679.44
2023-03-24T11:37:10.219Z,99699.97
2023-03-24T11:39:17.867Z,99692.09
2023-03-24T11:41:22.488Z,99705.94
2023-03-24T11:43:27.660Z,99700.78
2023-03-24T11:47:34.014Z,99700.78
2023-03-24T11:49:43.283Z,99727.50
2023-03-24T11:51:50.090Z,99778.31
2023-03-24T11:53:54.072Z,99680.06
2023-03-24T11:56:02.115Z,99729.28
2023-03-24T11:58:13.116Z,99699.00
2023-03-24T12:00:23.707Z,99702.41
2023-03-24T12:02:28.921Z,99710.28
2023-03-24T12:04:42.212Z,99701.59
2023-03-24T12:06:50.414Z,99693.00
2023-03-24T12:08:58.343Z,99686.19
2023-03-24T12:11:06.456Z,99678.38
2023-03-24T12:13:26.029Z,99700.72
2023-03-24T12:15:37.314Z,99703.31
2023-03-24T12:17:43.306Z,99708.44
2023-03-24T12:19:51.187Z,99701.69
2023-03-24T12:28:11.487Z,99675.13
2023-03-24T12:30:18.071Z,99707.81
2023-03-24T12:32:24.861Z,99693.19
2023-03-24T12:34:33.879Z,99697.47
2023-03-24T12:36:39.980Z,99680.25
2023-03-24T12:38:46.493Z,99713.88
2023-03-24T12:40:54.540Z,99689.81
2023-03-24T12:43:06.701Z,99702.75
2023-03-24T12:45:17.902Z,99690.78
2023-03-24T12:47:23.430Z,99706.28
2023-03-24T12:49:28.816Z,99690.84
2023-03-24T12:53:43.251Z,99714.06
2023-03-24T12:55:49.625Z,99697.78
2023-03-24T12:57:59.523Z,99707.22
2023-03-24T13:00:11.096Z,99692.63
2023-03-24T13:02:16.324Z,99705.50
2023-03-24T13:04:25.681Z,99680.63
2023-03-24T13:06:34.706Z,99694.34
2023-03-24T13:08:40.502Z,99680.59
2023-03-24T13:10:44.090Z,99664.28
2023-03-24T13:12:48.894Z,99663.41
2023-03-24T13:14:56.739Z,99658.25
2023-03-24T13:17:06.486Z,99656.47
2023-03-24T13:21:21.811Z,99647.81
2023-03-24T13:25:43.384Z,99666.63
2023-03-24T13:27:49.535Z,99638.22
2023-03-24T13:29:57.586Z,99645.94
2023-03-24T13:32:09.362Z,99638.97
2023-03-24T13:34:24.582Z,99650.03
2023-03-24T13:38:42.432Z,99622.34
2023-03-24T13:42:55.314Z,99621.31
2023-03-24T13:45:01.430Z,99611.44
2023-03-24T13:47:09.357Z,99594.94
2023-03-24T13:51:22.174Z,99604.81
2023-03-24T13:53:35.832Z,99594.56
2023-03-24T13:55:39.847Z,99628.69
2023-03-24T13:57:55.929Z,99640.50
2023-03-24T14:00:09.034Z,99665.44
2023-03-24T14:02:17.451Z,99669.91
2023-03-24T14:06:45.131Z,99637.19
2023-03-24T14:08:53.298Z,99634.84
2023-03-24T14:10:55.631Z,99623.72
2023-03-24T14:13:02.079Z,99625.53
2023-03-24T14:15:06.093Z,99639.34
2023-03-24T14:17:12.973Z,99628.19
2023-03-24T14:19:21.666Z,99611.00
2023-03-24T14:21:34.789Z,99605.84
2023-03-24T14:23:44.412Z,99599.84
2023-03-24T14:25:55.216Z,99608.41
2023-03-24T14:28:03.433Z,99600.66
2023-03-24T14:30:17.573Z,99593.88
2023-03-24T14:32:23.244Z,99595.56
2023-03-24T14:34:28.967Z,99587.84
2023-03-24T14:38:41.441Z,99603.31
2023-03-24T14:40:46.947Z,99593.03
2023-03-24T14:42:50.139Z,99593.88
2023-03-24T14:44:54.074Z,99585.19
2023-03-24T14:46:59.111Z,99579.16
2023-03-24T14:49:07.680Z,99588.56
2023-03-24T14:51:15.571Z,99569.59
2023-03-24T14:55:26.855Z,99631.47
2023-03-24T14:57:31.482Z,99565.38
2023-03-24T14:59:40.414Z,99582.59
2023-03-24T15:01:49.155Z,99586.06
2023-03-24T15:08:11.433Z,99578.31
2023-03-24T15:10:20.384Z,99579.25
2023-03-24T15:12:23.048Z,99574.00
2023-03-24T15:14:26.453Z,99603.28
2023-03-24T15:16:31.648Z,99591.25
2023-03-24T15:20:38.091Z,99622.16
2023-03-24T15:22:42.728Z,99631.56
2023-03-24T15:26:53.231Z,99624.72
2023-03-24T15:31:02.130Z,99632.44
2023-03-24T15:33:04.974Z,99605.00
2023-03-24T15:37:19.177Z,99606.75
2023-03-24T15:39:26.954Z,99591.25
2023-03-24T15:41:28.922Z,99592.97
2023-03-24T15:43:31.376Z,99608.44
2023-03-24T15:45:35.894Z,99584.41
2023-03-24T15:47:42.200Z,99570.63
2023-03-24T15:49:53.296Z,99572.34
2023-03-24T15:51:58.264Z,99569.78
2023-03-24T15:54:00.381Z,99598.13
2023-03-24T15:58:19.835Z,99591.28
2023-03-24T16:00:26.196Z,99591.31
2023-03-24T16:02:39.407Z,99581.88
2023-03-24T16:04:41.904Z,99577.56
2023-03-24T16:10:59.529Z,99573.28
2023-03-24T16:13:11.871Z,99565.56
2023-03-24T16:15:14.605Z,99557.00
2023-03-24T16:17:16.836Z,99559.56
2023-03-24T16:19:19.224Z,99569.84
2023-03-24T16:21:24.680Z,99573.28
2023-03-24T16:23:27.280Z,99567.28
2023-03-24T16:27:31.771Z,99560.41
2023-03-24T16:29:34.352Z,99570.72
2023-03-24T16:31:37.299Z,99550.97
2023-03-24T16:33:40.514Z,99563.84
2023-03-24T16:37:43.735Z,99551.84
2023-03-24T16:39:45.957Z,99542.38
2023-03-24T16:41:48.464Z,99554.41
2023-03-24T16:43:51.212Z,99543.22
2023-03-24T16:47:56.414Z,99614.50
2023-03-24T16:49:59.053Z,99668.59
2023-03-24T16:52:01.143Z,99661.66
2023-03-24T16:54:04.259Z,99643.56
2023-03-24T16:56:08.163Z,99635.78
2023-03-24T16:58:13.136Z,99626.31
2023-03-24T17:00:16.255Z,99614.25
2023-03-24T17:04:21.861Z,99622.75
2023-03-24T17:06:26.092Z,99621.78
2023-03-24T17:08:29.094Z,99619.16
2023-03-24T17:10:31.209Z,99611.53
2023-03-24T17:12:33.105Z,99612.41
2023-03-24T17:16:43.433Z,99630.34
2023-03-24T17:20:47.455Z,99654.91
2023-03-24T17:22:52.557Z,99678.09
2023-03-24T17:24:58.528Z,99645.47
2023-03-24T17:27:01.542Z,99614.59
2023-03-24T17:29:04.080Z,99630.06
2023-03-24T17:31:06.869Z,99622.38
2023-03-24T17:33:14.115Z,99633.50
2023-03-24T17:35:21.466Z,99620.56
2023-03-24T17:39:25.522Z,99628.31
2023-03-24T17:43:28.456Z,99630.94
2023-03-24T17:47:32.038Z,99626.63
2023-03-24T17:49:34.196Z,99631.78
2023-03-24T17:51:36.533Z,99656.44
2023-03-24T17:53:38.895Z,99647.97
2023-03-24T17:55:41.460Z,99628.31
2023-03-24T17:57:44.437Z,99618.94
2023-03-24T17:59:47.210Z,99619.72
2023-03-24T18:01:49.541Z,99613.81
2023-03-24T18:05:53.087Z,99619.81
2023-03-24T18:07:55.372Z,99620.66
2023-03-24T18:09:57.730Z,99621.47
2023-03-24T18:12:00.503Z,99629.22
2023-03-24T18:14:05.367Z,99641.13
2023-03-24T18:16:19.685Z,99640.19
2023-03-24T18:18:23.530Z,99640.28
2023-03-24T18:20:26.579Z,99632.63
2023-03-24T18:22:28.956Z,99620.69
2023-03-24T18:24:31.605Z,99630.09
2023-03-24T18:26:34.158Z,99638.66
2023-03-24T18:28:37.675Z,99635.13
2023-03-24T18:30:42.821Z,99644.47
2023-03-24T18:34:47.343Z,99645.31
2023-03-24T18:36:50.262Z,99642.69
2023-03-24T18:38:55.306Z,99653.13
2023-03-24T18:41:01.450Z,99648.72
2023-03-24T18:45:09.224Z,99671.00
2023-03-24T18:47:13.542Z,99657.28
2023-03-24T18:49:16.070Z,99657.31
2023-03-24T18:51:18.565Z,99660.72
2023-03-24T18:53:21.478Z,99660.78
2023-03-24T18:55:24.630Z,99662.59
2023-03-24T18:59:28.866Z,99659.09
2023-03-24T19:01:33.722Z,99658.25
2023-03-24T19:03:39.183Z,99660.03
2023-03-24T19:05:41.740Z,99651.47
2023-03-24T19:07:46.788Z,99658.31
2023-03-24T19:09:48.943Z,99676.09
2023-03-24T19:11:51.447Z,99664.91
2023-03-24T19:13:56.541Z,99660.81
2023-03-24T19:15:58.818Z,99659.16
2023-03-24T19:18:03.620Z,99658.34
2023-03-24T19:20:06.983Z,99658.34
2023-03-24T19:22:09.010Z,99651.41
2023-03-24T19:24:11.444Z,99653.19
2023-03-24T19:26:16.298Z,99657.47
2023-03-24T19:28:18.388Z,99662.66
2023-03-24T19:30:20.414Z,99640.34
2023-03-24T19:32:22.262Z,99661.84
2023-03-24T19:36:26.533Z,99660.97
2023-03-24T19:38:29.267Z,99662.66
2023-03-24T19:40:31.373Z,99670.47
2023-03-24T19:44:35.798Z,99663.63
2023-03-24T19:46:39.845Z,99652.50
2023-03-24T19:48:42.016Z,99663.63
2023-03-24T19:50:45.401Z,99666.88
2023-03-24T19:54:52.697Z,99646.34
2023-03-24T19:56:54.683Z,99662.63
2023-03-24T19:58:57.014Z,99659.19
2023-03-24T20:00:58.998Z,99663.22
2023-03-24T20:03:01.231Z,99660.81
2023-03-24T20:05:03.872Z,99654.03
2023-03-24T20:07:08.298Z,99640.25
2023-03-24T20:09:12.590Z,99654.72
2023-03-24T20:13:16.376Z,99651.31
2023-03-24T20:17:22.049Z,99648.94
2023-03-24T20:19:24.552Z,99647.22
2023-03-24T20:21:28.467Z,99654.91
2023-03-24T20:25:34.467Z,99663.56
2023-03-24T20:27:36.783Z,99660.78
2023-03-24T20:29:40.345Z,99659.28
2023-03-24T20:31:43.078Z,99647.19
2023-03-24T20:33:45.132Z,99669.53
2023-03-24T20:35:47.203Z,99664.41
2023-03-24T20:37:49.207Z,99648.13
2023-03-24T20:41:53.351Z,99655.00
2023-03-24T20:43:55.539Z,99657.47
2023-03-24T20:45:58.031Z,99652.28
2023-03-24T20:48:00.079Z,99642.91
2023-03-24T20:52:04.594Z,99655.00
2023-03-24T20:54:08.081Z,99645.63
2023-03-24T20:56:15.054Z,99655.66
2023-03-24T20:58:17.207Z,99656.63
2023-03-24T21:00:20.397Z,99643.00
2023-03-24T21:02:22.412Z,99663.41
2023-03-24T21:06:29.825Z,99661.81
2023-03-24T21:08:33.190Z,99660.00
2023-03-24T21:10:37.578Z,99656.53
2023-03-24T21:12:53.617Z,99641.28
2023-03-24T21:14:58.107Z,99643.84
2023-03-24T21:17:01.848Z,99649.00
2023-03-24T21:19:06.218Z,99664.31
2023-03-24T21:21:12.730Z,99657.47
2023-03-24T21:25:22.227Z,99652.34
2023-03-24T21:29:28.727Z,99660.94
2023-03-24T21:33:33.991Z,99645.50
2023-03-24T21:35:36.194Z,99647.97
2023-03-24T21:37:41.206Z,99662.66
2023-03-24T21:39:43.085Z,99652.31
2023-03-24T21:41:45.796Z,99655.84
2023-03-24T21:43:51.444Z,99664.22
2023-03-24T21:45:55.781Z,99663.53
2023-03-24T21:50:03.131Z,99652.44
2023-03-24T21:52:05.499Z,99672.00
2023-03-24T21:54:09.605Z,99670.38
2023-03-24T21:56:11.446Z,99677.31
2023-03-24T21:58:13.271Z,99670.22
2023-03-24T22:00:19.611Z,99666.13
2023-03-24T22:04:24.770Z,99667.75
2023-03-24T22:06:30.449Z,99674.59
2023-03-24T22:08:34.848Z,99667.81
2023-03-24T22:10:37.149Z,99675.44
2023-03-24T22:12:39.396Z,99685.63
2023-03-24T22:14:41.441Z,99683.16
2023-03-24T22:16:43.589Z,99679.81
2023-03-24T22:18:47.258Z,99684.06
2023-03-24T22:20:53.246Z,99699.34
2023-03-24T22:22:55.053Z,99699.34
2023-03-24T22:24:57.027Z,99694.19
2023-03-24T22:26:59.147Z,99725.84
2023-03-24T22:29:02.180Z,99695.81
2023-03-24T22:31:07.195Z,99700.16
2023-03-24T22:33:09.104Z,99695.16
2023-03-24T22:35:11.424Z,99694.38
2023-03-24T22:37:13.123Z,99685.81
2023-03-24T22:39:14.983Z,99695.13
2023-03-24T22:41:16.871Z,99689.91
2023-03-24T22:43:18.790Z,99682.19
2023-03-24T22:47:24.030Z,99689.91
2023-03-24T22:49:27.134Z,99707.88
2023-03-24T22:51:30.663Z,99686.50
2023-03-24T22:53:32.557Z,99707.00
2023-03-24T22:55:34.458Z,99698.44
2023-03-24T22:57:38.665Z,99707.09
2023-03-24T22:59:40.602Z,99709.59
2023-03-24T23:01:42.648Z,99706.94
2023-03-24T23:03:44.734Z,99699.31
2023-03-24T23:05:47.250Z,99708.81
2023-03-24T23:07:49.230Z,99704.53
2023-03-24T23:09:53.380Z,99703.53
2023-03-24T23:11:55.367Z,99709.53
2023-03-24T23:14:05.226Z,99709.47
2023-03-24T23:16:08.207Z,99712.16
2023-03-24T23:18:10.837Z,99728.44
2023-03-24T23:20:14.814Z,99705.44
2023-03-24T23:22:17.538Z,99710.34
2023-03-24T23:24:19.408Z,99721.75
2023-03-24T23:26:25.894Z,99715.75
2023-03-24T23:28:28.649Z,99720.03
2023-03-24T23:32:33.066Z,99724.97
2023-03-24T23:34:36.456Z,99715.59
2023-03-24T23:36:39.904Z,99723.38
2023-03-24T23:38:42.357Z,99730.13
2023-03-24T23:40:45.930Z,99727.63
2023-03-24T23:42:49.571Z,99718.31
2023-03-24T23:44:51.532Z,99734.50
2023-03-24T23:46:53.331Z,99734.53
2023-03-24T23:48:55.520Z,99739.75
2023-03-24T23:51:00.485Z,99742.22
2023-03-24T23:53:02.499Z,99737.19
2023-03-24T23:55:04.921Z,99731.25
2023-03-24T23:57:06.815Z,99726.06
2023-03-24T23:59:09.905Z,99738.97
